»·PEaware :: N2382R L52-L88

N2382R :: L52-L88

FLIGHT INFORMATION

Flight Status: Arrived
Operator: Privately registered:
United States
More flights under this callsign
Pilot: Peter G. (45030)
Aircraft: CESSNA 172 SKYHAWK
(C172)
More flights by this aircraft type
Origin: L52 Oceano Co
United States
Destination: L88 New Cuyama
United States
More flights between these airports :: More routes between these airports
Route: 350034N1202110W 350650N1200613W 350116N1195121W
File this flight plan on PilotEdge
Remarks:
Altitude:
(Current/Filed)
7,500ft
Speed:
(Current/Filed)
110kts
Departed: 25-Nov-23 07:17 PM
Arrived: 25-Nov-23 08:00 PM
Distance/Time
Traveled:
47nm/0:43
Distance/Time
To Go:
Arrived

Flight Plot

Page will automatically refresh every two minutes.

Flight plan parsing failed; only flown route is shown


Map Options




Map Legend


Flown Route
Filed Route
Departure Airport
Arrival Airport
Navaid (VOR, NDB)
Fix

Horizontal Profiles

Position Reports

Time Latitude Longitude Heading Altitude Ground
Speed
25-Nov-23 19:07 35.102469 -120.622927 0 16ft 0kts
25-Nov-23 19:08 35.102469 -120.622927 33 16ft 0kts
25-Nov-23 19:09 35.102469 -120.622927 33 16ft 0kts
25-Nov-23 19:10 35.102469 -120.622927 33 16ft 0kts
25-Nov-23 19:11 35.102469 -120.622927 33 16ft 0kts
25-Nov-23 19:12 35.102933 -120.623666 266 15ft 4kts
25-Nov-23 19:13 35.103641 -120.624658 319 14ft 12kts
25-Nov-23 19:14 35.103531 -120.625278 214 13ft 0kts
25-Nov-23 19:15 35.103530 -120.625278 214 13ft 0kts
25-Nov-23 19:16 35.099919 -120.619635 125 51ft 77kts
25-Nov-23 19:17 35.086333 -120.597539 107 868ft 83kts
25-Nov-23 19:18 35.077391 -120.570919 108 1667ft 86kts
25-Nov-23 19:19 35.069101 -120.543880 112 2451ft 84kts
25-Nov-23 19:20 35.056936 -120.519142 109 3169ft 84kts
25-Nov-23 19:21 35.050218 -120.492290 108 3866ft 81kts
25-Nov-23 19:22 35.044530 -120.464829 102 4495ft 84kts
25-Nov-23 19:23 35.036333 -120.438062 114 5106ft 84kts
25-Nov-23 19:24 35.025704 -120.412466 109 5698ft 84kts
25-Nov-23 19:25 35.015328 -120.386744 114 6267ft 84kts
25-Nov-23 19:26 35.005844 -120.360382 102 6809ft 84kts
25-Nov-23 19:27 35.014013 -120.333895 52 7299ft 87kts
25-Nov-23 19:28 35.026834 -120.307554 63 7564ft 104kts
25-Nov-23 19:29 35.040779 -120.276138 62 7650ft 93kts
25-Nov-23 19:30 35.054642 -120.244453 56 7513ft 106kts
25-Nov-23 19:31 35.072491 -120.215153 56 7477ft 107kts
25-Nov-23 19:32 35.086903 -120.183646 57 7458ft 108kts
25-Nov-23 19:33 35.102736 -120.152883 60 7431ft 107kts
25-Nov-23 19:34 35.117973 -120.122077 60 7472ft 105kts
25-Nov-23 19:35 35.123087 -120.089137 113 7506ft 104kts
25-Nov-23 19:36 35.109200 -120.057009 109 7512ft 106kts
25-Nov-23 19:37 35.094215 -120.024932 113 7502ft 110kts
25-Nov-23 19:38 35.080688 -119.991857 107 7608ft 106kts
25-Nov-23 19:39 35.066822 -119.958594 119 7627ft 110kts
25-Nov-23 19:40 35.052355 -119.925950 107 7559ft 111kts
25-Nov-23 19:41 35.041624 -119.891375 107 7249ft 109kts
25-Nov-23 19:42 35.029187 -119.858279 117 6693ft 107kts
25-Nov-23 19:43 35.015939 -119.827136 0 6068ft 0kts
25-Nov-23 19:44 35.001891 -119.794227 114 5498ft 105kts
25-Nov-23 19:45 34.989219 -119.761616 113 4926ft 106kts
25-Nov-23 19:46 34.973093 -119.731221 127 4383ft 107kts
25-Nov-23 19:47 34.953983 -119.703497 121 3846ft 106kts
25-Nov-23 19:48 34.932160 -119.684466 169 3633ft 109kts
25-Nov-23 19:49 34.906701 -119.695471 244 3800ft 99kts
25-Nov-23 19:50 34.919677 -119.725777 318 3759ft 110kts
25-Nov-23 19:51 34.947207 -119.738632 0 3789ft 106kts
25-Nov-23 19:52 34.950929 -119.716436 113 3372ft 102kts
25-Nov-23 19:53 34.940441 -119.684570 115 2409ft 92kts
25-Nov-23 19:54 34.923075 -119.672203 203 3137ft 93kts
25-Nov-23 19:55 34.928563 -119.702174 310 3027ft 104kts
25-Nov-23 19:56 34.941413 -119.730299 341 2768ft 71kts
25-Nov-23 19:57 34.953908 -119.717400 111 2476ft 80kts
25-Nov-23 19:58 34.944660 -119.693506 118 2308ft 66kts
25-Nov-23 19:59 34.939563 -119.684632 118 2180ft 9kts
25-Nov-23 20:00 34.937705 -119.680008 306 2199ft 0kts
25-Nov-23 20:01 34.937539 -119.680543 293 2196ft 0kts

Navigation Log

Ident Type
Flight plan parsing failed, navigation log unavailable